Time;durP1;ratioP1;P1;durP2;ratioP2;P2;SDS_P1;SDS_P2;PMS_P1;PMS_P2;Temp;Humidity;BMP_temperature;BMP_pressure;BME280_temperature;BME280_humidity;BME280_pressure;Samples;Min_cycle;Max_cycle;Signal;HPM_P1;HPM_P2
2021/10/15 00:01:59;;;;;;;13.13;5.53;;;;;;;16.30;72.09;101744.06;4829559;29;20435;-67
2021/10/15 00:04:27;;;;;;;11.88;5.43;;;;;;;16.32;71.88;101744.97;4820928;29;20582;-67
2021/10/15 00:06:52;;;;;;;12.60;5.22;;;;;;;16.33;72.17;101737.94;4820504;29;20060;-66
2021/10/15 00:09:18;;;;;;;12.40;5.82;;;;;;;16.26;72.18;101734.41;4811741;29;20471;-66
2021/10/15 00:11:45;;;;;;;13.63;5.72;;;;;;;16.20;72.49;101727.38;4821862;29;20083;-67
2021/10/15 00:14:13;;;;;;;15.60;5.90;;;;;;;16.26;72.14;101721.25;4821164;29;20037;-67
2021/10/15 00:16:40;;;;;;;13.82;5.35;;;;;;;16.23;72.21;101719.47;4813272;29;20033;-66
2021/10/15 00:19:08;;;;;;;16.63;5.75;;;;;;;16.18;72.51;101725.59;4839363;29;20037;-67
2021/10/15 00:21:33;;;;;;;11.80;5.57;;;;;;;16.24;72.38;101723.00;4819929;29;20321;-65
2021/10/15 00:23:59;;;;;;;16.52;5.50;;;;;;;16.23;72.24;101722.09;4800216;29;20157;-67
2021/10/15 00:26:24;;;;;;;15.45;5.68;;;;;;;16.25;72.32;101719.50;4802258;29;20414;-67
2021/10/15 00:28:50;;;;;;;14.25;5.53;;;;;;;16.15;72.69;101710.69;4797281;29;20749;-69
2021/10/15 00:31:16;;;;;;;14.90;5.18;;;;;;;16.22;72.69;101714.25;4844834;29;20053;-67
2021/10/15 00:33:41;;;;;;;16.15;5.68;;;;;;;16.15;72.95;101708.06;4821405;29;20459;-67
2021/10/15 00:36:06;;;;;;;14.85;5.60;;;;;;;16.11;73.06;101702.75;4838248;29;20399;-66
2021/10/15 00:38:32;;;;;;;14.43;5.43;;;;;;;16.18;72.68;101696.66;4815247;29;20045;-66
2021/10/15 00:40:58;;;;;;;14.27;5.30;;;;;;;16.16;72.76;101703.69;4817756;29;20144;-66
2021/10/15 00:43:25;;;;;;;13.02;5.10;;;;;;;16.10;73.00;101701.03;4805410;29;20087;-66
2021/10/15 00:46:01;;;;;;;13.20;5.85;;;;;;;16.17;72.89;101687.88;4805800;29;20324;-67
2021/10/15 00:48:33;;;;;;;12.57;5.25;;;;;;;16.21;72.67;101688.78;4829978;29;20060;-66
2021/10/15 00:51:00;;;;;;;;;;;;;;;16.20;72.61;101690.53;4829422;29;20643;-66
2021/10/15 00:53:27;;;;;;;13.13;5.55;;;;;;;16.19;72.39;101686.16;4833882;29;20364;-66
2021/10/15 00:55:57;;;;;;;13.93;5.63;;;;;;;16.23;72.49;101681.75;4807760;29;21150;-67
2021/10/15 00:58:23;;;;;;;15.85;5.82;;;;;;;16.13;72.99;101680.88;4798555;29;20041;-66
2021/10/15 01:00:52;;;;;;;17.58;6.07;;;;;;;16.13;72.93;101670.34;4823593;29;20053;-66
2021/10/15 01:03:17;;;;;;;13.65;5.65;;;;;;;16.17;72.79;101673.84;4827074;29;20045;-67
2021/10/15 01:05:43;;;;;;;15.07;5.50;;;;;;;16.13;73.11;101669.47;4803051;29;20103;-68
2021/10/15 01:08:08;;;;;;;12.07;5.75;;;;;;;16.10;73.18;101669.47;4817396;29;20506;-67
2021/10/15 01:10:35;;;;;;;16.20;5.93;;;;;;;16.15;72.92;101665.97;4830018;29;20068;-67
2021/10/15 01:13:02;;;;;;;15.20;5.28;;;;;;;16.18;72.79;101667.72;4831449;29;20079;-66
2021/10/15 01:15:27;;;;;;;12.63;5.40;;;;;;;16.19;72.75;101667.72;4813130;29;20076;-67
2021/10/15 01:17:56;;;;;;;13.40;5.72;;;;;;;16.02;73.29;101651.03;4791018;29;20537;-66
2021/10/15 01:20:22;;;;;;;13.07;5.03;;;;;;;16.15;73.00;101667.72;4813710;29;20060;-66
2021/10/15 01:22:49;;;;;;;14.32;5.35;;;;;;;16.14;73.05;101658.97;4811748;29;20514;-66
2021/10/15 01:25:18;;;;;;;11.63;5.60;;;;;;;16.16;72.79;101654.56;4819232;29;20044;-67
2021/10/15 01:27:45;;;;;;;12.30;5.15;;;;;;;16.23;72.93;101647.56;4820081;29;20045;-67
2021/10/15 01:30:11;;;;;;;13.45;5.70;;;;;;;16.09;73.37;101634.41;4814983;29;20080;-67
2021/10/15 01:32:40;;;;;;;12.25;5.18;;;;;;;16.06;73.38;101644.00;4830927;29;20040;-66
2021/10/15 01:35:06;;;;;;;16.55;5.57;;;;;;;16.09;73.24;101649.28;4827819;29;20052;-67
2021/10/15 01:37:31;;;;;;;15.82;5.00;;;;;;;16.18;72.95;101633.53;4804352;29;20575;-67
2021/10/15 01:39:59;;;;;;;12.18;5.18;;;;;;;16.23;72.75;101632.66;4831639;29;20053;-67
2021/10/15 01:45:09;;;;;;;11.75;5.43;;;;;;;16.19;72.75;101635.28;4814698;29;20120;-67
2021/10/15 01:47:39;;;;;;;14.10;5.07;;;;;;;16.16;72.78;101636.13;4808121;29;20033;-66
2021/10/15 01:50:04;;;;;;;11.98;4.97;;;;;;;16.14;72.88;101626.50;4829792;29;20722;-67
2021/10/15 01:52:31;;;;;;;15.63;4.65;;;;;;;16.20;72.34;101622.13;4819739;29;20044;-67
2021/10/15 01:55:00;;;;;;;9.68;4.07;;;;;;;16.24;71.85;101617.75;4822880;29;20052;-67
2021/10/15 01:57:26;;;;;;;11.95;3.60;;;;;;;16.29;70.99;101615.13;4798838;29;20053;-67
2021/10/15 01:59:57;;;;;;;11.35;3.55;;;;;;;16.34;70.25;101614.28;4821028;29;20418;-67
2021/10/15 02:02:24;;;;;;;11.25;3.35;;;;;;;16.45;69.98;101615.16;4827067;29;20498;-67
2021/10/15 02:04:49;;;;;;;7.53;3.30;;;;;;;16.53;69.58;101607.25;4813477;29;20482;-67
2021/10/15 02:07:15;;;;;;;9.73;3.67;;;;;;;16.60;69.23;101603.78;4824410;29;20057;-67
2021/10/15 02:09:42;;;;;;;10.32;3.30;;;;;;;16.56;68.92;101602.88;4808169;29;20565;-66
2021/10/15 02:12:08;;;;;;;9.23;3.22;;;;;;;16.69;68.50;101608.19;4808868;29;20079;-67
2021/10/15 02:14:33;;;;;;;11.70;3.63;;;;;;;16.79;67.94;101599.41;4835328;29;20140;-66
2021/10/15 02:16:58;;;;;;;9.95;3.50;;;;;;;16.77;68.31;101593.28;4830258;29;20048;-68
2021/10/15 02:19:24;;;;;;;10.30;3.38;;;;;;;16.79;68.00;101588.84;4832903;29;20507;-67
2021/10/15 02:21:49;;;;;;;13.15;3.65;;;;;;;16.80;67.92;101580.09;4821967;29;20961;-67
2021/10/15 02:24:15;;;;;;;9.43;3.58;;;;;;;16.77;67.80;101588.84;4817011;29;20234;-67
2021/10/15 02:26:40;;;;;;;8.10;3.47;;;;;;;16.83;67.49;101583.59;4812570;29;20042;-67
2021/10/15 02:29:06;;;;;;;11.40;3.60;;;;;;;16.87;67.43;101577.47;4798935;29;20141;-67
2021/10/15 02:31:32;;;;;;;10.27;3.50;;;;;;;16.83;67.08;101583.59;4831779;29;20234;-67
2021/10/15 02:34:03;;;;;;;14.65;3.72;;;;;;;16.79;67.33;101573.94;4795550;29;20479;-67
2021/10/15 02:36:28;;;;;;;7.80;3.55;;;;;;;16.82;66.90;101578.34;4822362;29;20705;-67
2021/10/15 02:38:54;;;;;;;12.07;3.30;;;;;;;16.89;66.83;101577.47;4827227;29;20051;-67
2021/10/15 02:41:21;;;;;;;9.77;3.20;;;;;;;16.86;66.70;101575.69;4818263;29;20040;-67
2021/10/15 02:43:48;;;;;;;9.25;3.75;;;;;;;16.89;66.66;101577.47;4817677;29;20514;-67
2021/10/15 02:46:14;;;;;;;10.60;3.30;;;;;;;16.82;66.81;101563.41;4830858;29;20049;-67
2021/10/15 02:48:40;;;;;;;11.15;3.60;;;;;;;16.77;66.83;101559.88;4824622;29;20060;-67
2021/10/15 02:51:06;;;;;;;11.02;3.72;;;;;;;16.78;66.70;101560.78;4820137;29;20053;-67
2021/10/15 02:53:43;;;;;;;13.02;3.60;;;;;;;16.69;67.53;101552.91;4799062;29;20045;-67
2021/10/15 02:56:11;;;;;;;12.70;3.70;;;;;;;16.64;66.84;101560.81;4823113;29;20049;-67
2021/10/15 02:58:38;;;;;;;9.27;3.20;;;;;;;16.77;66.63;101545.88;4828811;29;20037;-66
2021/10/15 03:01:03;;;;;;;11.52;3.60;;;;;;;16.78;66.48;101552.88;4848667;29;20108;-67
2021/10/15 03:03:30;;;;;;;12.85;3.63;;;;;;;16.79;66.60;101542.34;4813898;29;20053;-67
2021/10/15 03:05:56;;;;;;;9.32;3.50;;;;;;;16.82;66.57;101552.00;4810654;29;20057;-67
2021/10/15 03:08:23;;;;;;;15.52;3.90;;;;;;;16.83;66.61;101551.97;4816629;29;20483;-67
2021/10/15 03:10:50;;;;;;;11.82;3.53;;;;;;;16.87;66.66;101553.75;4830769;29;20037;-67
2021/10/15 03:13:16;;;;;;;7.40;3.70;;;;;;;16.86;66.77;101549.34;4831632;29;20045;-67
2021/10/15 03:15:41;;;;;;;9.85;3.40;;;;;;;16.88;66.97;101559.91;4806942;29;20040;-66
2021/10/15 03:18:08;;;;;;;8.10;3.80;;;;;;;16.85;67.00;101552.88;4803242;29;20060;-67
2021/10/15 03:20:35;;;;;;;9.05;3.80;;;;;;;16.76;67.28;101547.63;4835264;29;20040;-66
2021/10/15 03:23:02;;;;;;;9.35;3.72;;;;;;;16.79;66.84;101549.38;4830021;29;20443;-67
2021/10/15 03:25:31;;;;;;;9.65;3.33;;;;;;;16.79;66.25;101546.72;4823941;29;20201;-66
2021/10/15 03:27:57;;;;;;;10.40;3.63;;;;;;;16.85;65.87;101550.22;4804837;29;20049;-67
2021/10/15 03:30:23;;;;;;;10.43;3.50;;;;;;;16.84;65.65;101542.31;4834557;29;20104;-67
2021/10/15 03:32:49;;;;;;;9.57;3.40;;;;;;;16.79;64.72;101544.09;4819272;29;20051;-67
2021/10/15 03:35:16;;;;;;;7.57;3.50;;;;;;;16.80;64.86;101538.84;4814465;29;20092;-66
2021/10/15 03:37:42;;;;;;;11.05;3.50;;;;;;;16.77;64.71;101537.97;4823023;29;22152;-66
2021/10/15 03:40:08;;;;;;;8.07;3.10;;;;;;;16.77;64.99;101540.59;4818639;29;20080;-67
2021/10/15 03:42:33;;;;;;;10.73;3.35;;;;;;;16.76;65.08;101533.59;4809415;29;20049;-68
2021/10/15 03:44:59;;;;;;;11.50;3.28;;;;;;;16.84;64.48;101537.06;4829924;29;20422;-67
2021/10/15 03:47:25;;;;;;;13.93;3.80;;;;;;;16.90;64.68;101543.19;4823431;29;20402;-67
2021/10/15 03:49:50;;;;;;;8.15;3.67;;;;;;;16.85;65.36;101550.22;4826106;29;20367;-67
2021/10/15 03:52:16;;;;;;;7.95;3.40;;;;;;;16.84;65.46;101539.69;4814815;29;20589;-67
2021/10/15 03:54:42;;;;;;;12.57;3.50;;;;;;;16.81;65.76;101543.22;4837339;29;20044;-67
2021/10/15 03:57:07;;;;;;;15.68;3.92;;;;;;;16.84;65.47;101539.69;4837401;29;20473;-67
2021/10/15 03:59:33;;;;;;;13.68;3.90;;;;;;;16.87;65.35;101543.22;4820907;29;20748;-67
2021/10/15 04:01:58;;;;;;;11.10;3.45;;;;;;;16.78;65.89;101548.47;4812114;29;20507;-67
2021/10/15 04:04:23;;;;;;;10.68;3.80;;;;;;;16.77;65.56;101545.88;4832056;29;20538;-67
2021/10/15 04:06:49;;;;;;;9.43;3.38;;;;;;;16.70;66.11;101541.50;4808519;29;20534;-68
2021/10/15 04:09:14;;;;;;;12.38;3.80;;;;;;;16.75;65.40;101537.09;4833915;29;20135;-69
2021/10/15 04:11:39;;;;;;;12.75;3.80;;;;;;;16.71;65.95;101540.63;4820611;29;20697;-67
2021/10/15 04:14:05;;;;;;;9.48;3.50;;;;;;;16.78;65.64;101537.94;4825641;29;20207;-67
2021/10/15 04:16:32;;;;;;;12.77;3.83;;;;;;;16.72;65.53;101531.81;4812829;29;20033;-67
2021/10/15 04:18:58;;;;;;;9.35;3.40;;;;;;;16.83;65.59;101530.91;4825400;29;20037;-67
2021/10/15 04:21:23;;;;;;;12.55;3.63;;;;;;;16.82;65.43;101530.94;4818840;29;20176;-67
2021/10/15 04:23:49;;;;;;;10.82;3.65;;;;;;;16.73;65.91;101520.41;4825701;29;20517;-67
2021/10/15 04:26:14;;;;;;;15.60;3.90;;;;;;;16.75;66.20;101534.47;4810622;29;20084;-67
2021/10/15 04:28:44;;;;;;;12.13;3.95;;;;;;;16.74;65.69;101536.22;4819014;29;20045;-67
2021/10/15 04:31:10;;;;;;;14.55;3.60;;;;;;;16.82;65.31;101528.31;4812391;29;20057;-67
2021/10/15 04:33:36;;;;;;;10.88;3.50;;;;;;;16.83;65.51;101532.69;4805200;29;20675;-66
2021/10/15 04:36:01;;;;;;;12.45;3.63;;;;;;;16.84;65.58;101527.41;4796166;29;20608;-67
2021/10/15 04:38:27;;;;;;;11.90;3.40;;;;;;;16.66;65.63;101518.66;4832185;29;20510;-67
2021/10/15 04:40:52;;;;;;;11.90;3.70;;;;;;;16.70;65.17;101526.56;4846967;29;20786;-67
2021/10/15 04:43:18;;;;;;;10.38;3.50;;;;;;;16.70;65.70;101534.47;4815682;29;20541;-67
2021/10/15 04:45:45;;;;;;;10.50;3.13;;;;;;;16.73;65.64;101530.94;4812335;29;20124;-67
2021/10/15 04:48:12;;;;;;;12.40;3.42;;;;;;;16.69;65.59;101526.56;4813968;29;20053;-67
2021/10/15 04:50:37;;;;;;;13.38;3.70;;;;;;;16.71;65.81;101532.72;4834837;29;20541;-67
2021/10/15 04:53:04;;;;;;;11.52;3.42;;;;;;;16.76;65.80;101525.69;4813592;29;20051;-66
2021/10/15 04:55:30;;;;;;;11.77;3.25;;;;;;;16.63;66.23;101525.69;4812352;29;20128;-66
2021/10/15 04:58:00;;;;;;;12.18;3.42;;;;;;;16.73;65.87;101534.44;4824913;29;20546;-66
2021/10/15 05:00:26;;;;;;;13.02;3.80;;;;;;;16.72;66.16;101527.44;4827377;29;20044;-67
2021/10/15 05:02:52;;;;;;;14.60;3.60;;;;;;;16.71;66.18;101528.31;4815578;29;20574;-68
2021/10/15 05:05:23;;;;;;;11.50;3.60;;;;;;;16.74;65.84;101530.06;4815133;29;20904;-67
2021/10/15 05:07:50;;;;;;;12.38;4.00;;;;;;;16.71;66.04;101535.34;4825582;29;20654;-67
2021/10/15 05:10:22;;;;;;;10.98;3.55;;;;;;;16.72;65.76;101527.44;4836961;29;20643;-67
2021/10/15 05:12:51;;;;;;;11.07;3.63;;;;;;;16.81;65.32;101530.06;4827227;29;20049;-67
2021/10/15 05:15:19;;;;;;;10.32;3.58;;;;;;;16.71;65.34;101525.66;4840350;29;20492;-67
2021/10/15 05:17:45;;;;;;;10.98;3.50;;;;;;;16.69;65.46;101521.31;4803367;29;20105;-68
2021/10/15 05:20:17;;;;;;;12.38;3.40;;;;;;;16.76;65.57;101518.66;4794125;29;20482;-67
2021/10/15 05:22:43;;;;;;;9.65;3.67;;;;;;;16.82;65.18;101526.56;4834507;29;20104;-66
2021/10/15 05:25:09;;;;;;;10.35;3.15;;;;;;;16.77;65.59;101536.19;4819818;29;20044;-66
2021/10/15 05:27:35;;;;;;;15.30;3.53;;;;;;;16.75;66.18;101535.34;4800321;29;20053;-66
2021/10/15 05:30:01;;;;;;;12.32;3.70;;;;;;;16.58;68.15;101540.59;4815165;29;20048;-66
2021/10/15 05:32:47;;;;;;;15.77;4.30;;;;;;;16.50;69.78;101544.97;4806563;29;20049;-66
2021/10/15 05:35:20;;;;;;;8.93;3.67;;;;;;;16.37;71.09;101548.47;4832760;29;20910;-66
2021/10/15 05:37:46;;;;;;;11.13;3.55;;;;;;;16.20;71.84;101552.84;4821228;29;20635;-67
2021/10/15 05:40:12;;;;;;;7.45;3.03;;;;;;;16.04;72.26;101540.56;4813637;29;20379;-68
2021/10/15 05:42:43;;;;;;;7.32;3.17;;;;;;;15.82;73.30;101543.13;4829709;29;20063;-67
2021/10/15 05:45:09;;;;;;;9.88;3.60;;;;;;;15.74;73.81;101543.97;4819257;29;20116;-67
2021/10/15 05:47:34;;;;;;;9.85;3.88;;;;;;;15.73;74.04;101543.13;4791020;29;20041;-67
2021/10/15 05:50:00;;;;;;;9.40;3.75;;;;;;;15.74;74.05;101542.22;4832152;29;20043;-66
2021/10/15 05:52:34;;;;;;;10.20;3.95;;;;;;;15.73;74.24;101543.13;4809756;29;20045;-67
2021/10/15 05:55:16;;;;;;;13.98;3.90;;;;;;;15.70;74.81;101550.09;4831594;29;20045;-67
2021/10/15 06:00:24;;;;;;;9.73;3.85;;;;;;;15.71;74.91;101554.50;4820340;29;20507;-67
2021/10/15 06:02:49;;;;;;;12.98;4.13;;;;;;;15.65;75.14;101579.03;4810745;29;20036;-68
2021/10/15 06:15:36;;;;;;;5.18;0.82;;;;;;;14.75;75.12;101609.09;4806605;29;20055;-68
2021/10/15 06:18:11;;;;;;;3.70;0.70;;;;;;;14.74;75.16;101614.34;4829143;29;20145;-67
2021/10/15 06:20:37;;;;;;;3.63;0.60;;;;;;;14.61;75.55;101615.97;4814811;29;20055;-70
2021/10/15 06:23:03;;;;;;;2.63;0.60;;;;;;;14.65;75.36;101625.63;4836674;29;20477;-70
2021/10/15 06:25:31;;;;;;;4.82;0.73;;;;;;;14.45;76.33;101624.59;4817609;29;20120;-69
2021/10/15 06:28:01;;;;;;;4.53;0.60;;;;;;;14.40;76.68;101631.50;4827378;29;20121;-68
2021/10/15 06:30:27;;;;;;;4.07;0.60;;;;;;;14.49;76.27;101637.72;4807523;29;20068;-67
2021/10/15 06:32:53;;;;;;;5.43;0.80;;;;;;;14.25;77.25;101640.09;4808147;29;20049;-67
2021/10/15 06:35:19;;;;;;;4.78;0.80;;;;;;;13.82;77.93;101649.19;4828326;29;20439;-67
2021/10/15 06:37:46;;;;;;;7.35;0.80;;;;;;;13.89;77.69;101663.25;4811471;29;20049;-69
2021/10/15 06:40:12;;;;;;;5.10;0.98;;;;;;;14.02;76.80;101665.16;4818926;29;20045;-68
2021/10/15 06:42:39;;;;;;;5.75;0.88;;;;;;;14.08;76.57;101673.09;4835047;29;20132;-67
2021/10/15 06:45:05;;;;;;;6.97;0.80;;;;;;;14.00;76.61;101678.25;4825680;29;20684;-68
2021/10/15 06:47:31;;;;;;;5.25;0.90;;;;;;;13.75;76.83;101686.66;4809223;29;20036;-69
2021/10/15 06:49:57;;;;;;;12.70;1.13;;;;;;;13.88;76.37;101690.31;4820550;29;20105;-69
2021/10/15 06:52:22;;;;;;;9.55;1.10;;;;;;;13.92;76.51;101687.75;4827518;29;20431;-68
2021/10/15 06:54:48;;;;;;;10.48;1.15;;;;;;;13.87;76.47;101692.06;4810235;29;20447;-67
2021/10/15 06:57:13;;;;;;;10.98;1.17;;;;;;;13.76;76.25;101697.19;4837573;29;20257;-67
2021/10/15 06:59:39;;;;;;;9.75;1.40;;;;;;;13.94;75.73;101698.28;4833118;29;20085;-68
2021/10/15 07:02:04;;;;;;;9.32;1.10;;;;;;;13.91;75.28;101700.84;4817381;29;20723;-68
2021/10/15 07:04:29;;;;;;;6.53;1.20;;;;;;;13.99;75.33;101709.69;4818971;29;20488;-68
2021/10/15 07:07:02;;;;;;;11.77;1.27;;;;;;;14.06;75.10;101711.53;4831596;29;20044;-68
2021/10/15 07:09:30;;;;;;;9.55;1.02;;;;;;;14.01;75.06;101714.09;4832249;29;20105;-68
2021/10/15 07:11:55;;;;;;;6.15;1.13;;;;;;;13.92;74.85;101719.22;4815675;29;20532;-68
2021/10/15 07:14:21;;;;;;;9.80;1.45;;;;;;;13.92;75.27;101723.56;4830568;29;20112;-68
2021/10/15 07:16:47;;;;;;;8.93;1.50;;;;;;;13.90;74.08;101723.56;4820162;29;20047;-69
2021/10/15 07:19:13;;;;;;;7.38;1.13;;;;;;;13.86;73.77;101731.34;4815495;29;20049;-68
2021/10/15 07:21:39;;;;;;;15.55;1.45;;;;;;;13.84;73.56;101730.47;4827152;29;20068;-67
2021/10/15 07:24:04;;;;;;;11.05;1.50;;;;;;;14.01;73.91;101739.44;4817491;29;20143;-68
2021/10/15 07:26:29;;;;;;;8.48;1.50;;;;;;;14.03;73.94;101740.31;4812619;29;20507;-68
2021/10/15 07:28:55;;;;;;;6.63;1.27;;;;;;;14.06;73.35;101743.00;4821692;29;20161;-68
2021/10/15 07:31:21;;;;;;;8.95;1.20;;;;;;;14.07;72.78;101742.13;4838601;29;20147;-67
2021/10/15 07:33:48;;;;;;;10.85;1.30;;;;;;;14.03;72.54;101743.81;4794339;29;20049;-67
2021/10/15 07:36:16;;;;;;;8.90;1.10;;;;;;;14.00;72.24;101750.78;4827151;29;20485;-66
2021/10/15 07:38:41;;;;;;;10.55;1.40;;;;;;;14.07;72.52;101760.50;4834198;29;20056;-66
2021/10/15 07:41:08;;;;;;;6.65;1.52;;;;;;;14.10;74.04;101755.28;4838590;29;20045;-68
2021/10/15 07:43:34;;;;;;;8.57;1.38;;;;;;;14.18;72.68;101765.00;4830651;29;20049;-66
2021/10/15 07:45:59;;;;;;;7.45;1.17;;;;;;;14.16;73.43;101771.09;4835585;29;20137;-68
2021/10/15 07:48:25;;;;;;;10.57;1.20;;;;;;;14.19;73.82;101773.75;4819594;29;20041;-68
2021/10/15 07:50:51;;;;;;;7.85;1.25;;;;;;;14.20;73.72;101776.41;4821306;29;20055;-67
2021/10/15 07:53:16;;;;;;;9.00;1.33;;;;;;;14.26;73.88;101787.84;4835293;29;20052;-68
2021/10/15 07:55:42;;;;;;;8.20;1.13;;;;;;;14.34;74.69;101787.06;4818594;29;20369;-67
2021/10/15 07:58:08;;;;;;;9.68;1.45;;;;;;;14.46;75.13;101792.50;4825074;29;20642;-67
2021/10/15 08:00:35;;;;;;;5.40;1.10;;;;;;;14.58;74.71;101787.38;4835500;29;20407;-67
2021/10/15 08:03:02;;;;;;;10.13;1.42;;;;;;;14.72;74.38;101791.91;4807291;29;20044;-67
2021/10/15 08:05:27;;;;;;;8.27;1.30;;;;;;;14.95;74.03;101798.28;4835908;29;20041;-67
2021/10/15 08:07:53;;;;;;;5.30;1.10;;;;;;;15.09;73.30;101794.06;4805605;29;20056;-67
2021/10/15 08:10:18;;;;;;;5.15;1.05;;;;;;;15.17;72.08;101796.75;4813310;29;20051;-67
2021/10/15 08:12:44;;;;;;;8.75;1.17;;;;;;;15.27;70.51;101798.59;4827403;29;20181;-66
2021/10/15 08:15:11;;;;;;;7.57;1.10;;;;;;;15.26;68.86;101805.59;4816948;29;20137;-67
2021/10/15 08:17:38;;;;;;;7.78;1.10;;;;;;;15.49;69.72;101811.03;4810235;29;20049;-66
2021/10/15 08:20:04;;;;;;;6.97;1.02;;;;;;;15.68;70.48;101812.09;4838641;29;20064;-68
2021/10/15 08:22:52;;;;;;;7.20;1.08;;;;;;;15.62;68.61;101817.31;4817243;29;20515;-67
2021/10/15 08:25:18;;;;;;;8.02;1.45;;;;;;;15.59;68.95;101815.56;4834156;29;20037;-67
2021/10/15 08:27:45;;;;;;;7.63;1.40;;;;;;;15.61;69.39;101826.09;4804123;29;22277;-67
2021/10/15 08:30:10;;;;;;;10.88;1.67;;;;;;;15.05;67.90;101825.53;4814298;29;20160;-68
2021/10/15 08:32:36;;;;;;;9.02;1.20;;;;;;;15.29;69.26;101828.41;4829653;29;20143;-66
2021/10/15 08:35:03;;;;;;;7.85;1.33;;;;;;;15.44;69.01;101831.13;4835557;29;20675;-66
2021/10/15 08:37:31;;;;;;;10.32;1.58;;;;;;;15.40;66.01;101839.88;4823533;29;20556;-66
2021/10/15 08:39:57;;;;;;;11.38;1.50;;;;;;;15.36;65.32;101844.25;4820643;29;20753;-67
2021/10/15 08:42:23;;;;;;;11.20;1.83;;;;;;;15.37;66.06;101845.09;4833512;29;20661;-67
2021/10/15 08:44:48;;;;;;;12.80;1.60;;;;;;;15.50;68.23;101851.34;4832919;29;20117;-67
2021/10/15 08:47:17;;;;;;;11.65;1.70;;;;;;;15.46;65.90;101846.94;4832429;29;20198;-67
2021/10/15 08:49:43;;;;;;;11.20;1.60;;;;;;;15.59;65.75;101859.34;4821054;29;20056;-68
2021/10/15 08:52:14;;;;;;;11.43;1.80;;;;;;;15.66;65.49;101862.06;4835717;29;20044;-67
2021/10/15 08:54:43;;;;;;;9.10;1.35;;;;;;;15.63;64.53;101866.38;4824088;29;20048;-67
2021/10/15 08:57:09;;;;;;;11.43;1.98;;;;;;;15.13;62.44;101868.50;4816684;29;20037;-68
2021/10/15 08:59:46;;;;;;;9.27;1.50;;;;;;;15.37;62.14;101874.00;4819948;29;20505;-66
2021/10/15 09:02:20;;;;;;;11.95;1.73;;;;;;;15.51;62.20;101882.91;4815629;29;20410;-67
2021/10/15 09:04:59;;;;;;;9.18;1.60;;;;;;;15.37;62.24;101885.38;4807214;29;20064;-67
2021/10/15 09:07:26;;;;;;;8.75;1.40;;;;;;;15.11;62.07;101881.63;4810807;29;20045;-67
2021/10/15 09:10:16;;;;;;;8.25;1.50;;;;;;;15.01;60.33;101885.88;4816181;29;20366;-67
2021/10/15 09:12:48;;;;;;;7.95;1.35;;;;;;;15.24;59.56;101880.03;4830051;29;20056;-67
2021/10/15 09:15:19;;;;;;;7.40;1.33;;;;;;;15.40;61.07;101890.69;4816121;29;20403;-66
2021/10/15 09:17:50;;;;;;;7.93;1.17;;;;;;;15.34;56.01;101892.38;4809527;29;20048;-66
2021/10/15 09:20:31;;;;;;;7.90;1.30;;;;;;;15.48;56.35;101889.88;4831927;29;20057;-66
2021/10/15 09:22:57;;;;;;;9.00;1.40;;;;;;;15.43;55.04;101890.69;4832998;29;20127;-66
2021/10/15 09:25:34;;;;;;;9.23;1.60;;;;;;;15.68;56.71;101889.22;4834972;29;20096;-66
2021/10/15 09:27:59;;;;;;;10.85;1.40;;;;;;;15.80;54.71;101891.94;4832847;29;20092;-66
2021/10/15 09:30:28;;;;;;;4.70;1.05;;;;;;;16.04;55.77;101896.50;4818765;29;20515;-68
2021/10/15 09:32:56;;;;;;;12.35;1.65;;;;;;;16.10;56.53;101907.06;4837202;29;20525;-66
2021/10/15 09:35:23;;;;;;;6.22;1.25;;;;;;;16.29;56.60;101900.19;4812476;29;20132;-66
2021/10/15 09:37:53;;;;;;;10.85;1.60;;;;;;;16.31;55.21;101906.34;4822018;29;20040;-67
2021/10/15 09:40:21;;;;;;;9.27;1.30;;;;;;;16.21;54.04;101910.69;4813083;29;20037;-67
2021/10/15 09:42:49;;;;;;;7.93;1.40;;;;;;;16.10;52.54;101914.13;4827190;29;20051;-67
2021/10/15 09:45:16;;;;;;;10.50;1.42;;;;;;;16.39;55.34;101919.56;4834770;29;20056;-68
2021/10/15 09:47:51;;;;;;;6.55;1.70;;;;;;;16.53;54.73;101913.50;4807849;29;20072;-66
2021/10/15 09:50:19;;;;;;;16.40;1.50;;;;;;;16.67;54.46;101908.34;4806777;29;20527;-65
2021/10/15 09:52:56;;;;;;;12.32;1.80;;;;;;;17.02;54.33;101919.88;4831303;29;20053;-66
2021/10/15 09:55:25;;;;;;;8.45;1.33;;;;;;;17.14;54.75;101926.09;4827195;29;20631;-68
2021/10/15 09:57:53;;;;;;;8.30;1.30;;;;;;;17.26;56.26;101927.00;4818867;29;20788;-67
2021/10/15 10:00:31;;;;;;;8.90;1.60;;;;;;;17.09;55.30;101931.34;4828118;29;20083;-67
2021/10/15 10:02:56;;;;;;;7.82;1.25;;;;;;;16.83;54.75;101939.13;4837248;29;20350;-67
2021/10/15 10:05:22;;;;;;;6.03;1.30;;;;;;;16.85;55.92;101939.13;4817159;29;20045;-68
2021/10/15 10:07:50;;;;;;;8.30;1.38;;;;;;;16.58;52.87;101938.13;4822794;29;20041;-67
2021/10/15 10:10:20;;;;;;;5.57;1.40;;;;;;;16.89;54.91;101941.81;4821125;29;20116;-66
2021/10/15 10:12:47;;;;;;;8.02;1.42;;;;;;;16.92;52.56;101935.66;4831401;29;20601;-67
2021/10/15 10:15:15;;;;;;;7.90;1.20;;;;;;;17.00;53.16;101941.84;4838427;29;20041;-66
2021/10/15 10:17:57;;;;;;;7.15;1.10;;;;;;;16.89;50.88;101947.09;4815158;29;20053;-68
2021/10/15 10:20:33;;;;;;;6.22;1.17;;;;;;;16.69;52.15;101947.84;4822902;29;20045;-66
2021/10/15 10:23:07;;;;;;;8.32;1.40;;;;;;;16.13;52.32;101951.84;4829726;29;20044;-64
2021/10/15 10:25:34;;;;;;;7.72;1.35;;;;;;;16.12;53.23;101951.81;4812719;29;20065;-65
2021/10/15 10:28:14;;;;;;;9.98;1.40;;;;;;;16.50;54.02;101958.25;4812464;29;20068;-67
2021/10/15 10:30:42;;;;;;;7.95;1.23;;;;;;;16.69;54.29;101946.09;4834132;29;20049;-67
2021/10/15 10:33:07;;;;;;;10.70;1.48;;;;;;;16.83;53.46;101969.88;4819463;29;20594;-67
2021/10/15 10:35:39;;;;;;;11.18;1.30;;;;;;;16.45;52.84;101970.50;4819746;29;20042;-65
2021/10/15 10:38:20;;;;;;;11.43;1.48;;;;;;;15.69;53.55;101961.06;4850425;29;20041;-66
2021/10/15 10:41:00;;;;;;;8.55;1.58;;;;;;;15.63;54.91;101966.28;4830768;29;20057;-66
2021/10/15 10:43:46;;;;;;;11.80;1.15;;;;;;;15.84;54.24;101971.75;4835734;29;20137;-68
2021/10/15 10:46:16;;;;;;;8.95;1.10;;;;;;;15.58;54.16;101967.97;4817738;29;20048;-67
2021/10/15 10:48:50;;;;;;;6.97;1.30;;;;;;;15.96;53.96;101963.09;4818514;29;21348;-65
2021/10/15 10:51:17;;;;;;;;;;;;;;;15.77;53.59;101972.56;4832028;29;20048;-66
2021/10/15 10:54:13;;;;;;;8.23;1.27;;;;;;;15.72;54.00;101977.78;4826150;29;19915;-64
2021/10/15 10:56:41;;;;;;;7.07;1.33;;;;;;;15.97;53.78;101978.88;4826506;29;20478;-66
2021/10/15 10:59:20;;;;;;;10.52;1.85;;;;;;;16.07;52.97;101991.25;4832473;29;20385;-66
2021/10/15 11:01:45;;;;;;;12.77;1.58;;;;;;;16.44;52.41;101994.16;4830919;29;20478;-66
2021/10/15 11:04:40;;;;;;;6.82;1.17;;;;;;;16.54;50.38;101994.22;4828016;29;20055;-66
2021/10/15 11:07:09;;;;;;;9.98;1.63;;;;;;;16.62;49.62;101995.22;4831655;29;20061;-68
2021/10/15 11:09:47;;;;;;;11.18;1.60;;;;;;;16.70;50.41;102008.44;4819992;29;20531;-66
2021/10/15 11:12:23;;;;;;;10.70;1.65;;;;;;;16.82;50.59;102007.63;4826210;29;20468;-66
2021/10/15 11:15:00;;;;;;;8.95;1.38;;;;;;;16.42;50.33;102003.78;4817407;29;20148;-66
2021/10/15 11:17:31;;;;;;;9.77;1.25;;;;;;;16.58;49.56;102009.19;4836092;29;20056;-66
2021/10/15 11:20:26;;;;;;;9.52;1.20;;;;;;;16.77;49.13;102010.19;4826870;29;20147;-68
2021/10/15 11:23:08;;;;;;;11.05;1.60;;;;;;;16.94;48.18;102027.00;4820681;29;20076;-66
2021/10/15 11:25:41;;;;;;;9.25;1.58;;;;;;;17.14;47.76;102018.31;4828387;29;20105;-66
2021/10/15 11:28:08;;;;;;;12.35;1.58;;;;;;;17.25;48.34;102027.16;4798968;29;20064;-66
2021/10/15 11:30:38;;;;;;;10.07;1.73;;;;;;;17.38;49.74;102026.34;4834611;29;20113;-66
2021/10/15 11:33:07;;;;;;;11.88;1.90;;;;;;;17.40;51.68;102035.09;4831850;29;20101;-66
2021/10/15 11:35:36;;;;;;;15.40;1.98;;;;;;;17.25;50.84;102042.97;4813235;29;20193;-67
2021/10/15 11:38:07;;;;;;;10.73;2.03;;;;;;;16.58;51.37;102035.53;4825147;29;20527;-67
2021/10/15 11:40:41;;;;;;;17.88;2.22;;;;;;;16.10;50.99;102038.59;4826120;29;20056;-66
2021/10/15 11:43:13;;;;;;;18.30;2.38;;;;;;;16.27;52.07;102037.91;4827080;29;20105;-66